sensor_id;sensor_type;location;lat;lon;timestamp;P1;durP1;ratioP1;P2;durP2;ratioP2
18376;SDS011;9315;52.624;13.544;2023-03-31T00:01:06;6.70;;;1.77;;
18376;SDS011;9315;52.624;13.544;2023-03-31T00:03:33;8.17;;;2.00;;
18376;SDS011;9315;52.624;13.544;2023-03-31T00:06:04;8.70;;;1.73;;
18376;SDS011;9315;52.624;13.544;2023-03-31T00:08:32;5.00;;;1.50;;
18376;SDS011;9315;52.624;13.544;2023-03-31T00:11:03;10.70;;;1.80;;
18376;SDS011;9315;52.624;13.544;2023-03-31T00:13:32;10.13;;;2.30;;
18376;SDS011;9315;52.624;13.544;2023-03-31T00:16:03;4.30;;;1.60;;
18376;SDS011;9315;52.624;13.544;2023-03-31T00:18:35;6.83;;;1.80;;
18376;SDS011;9315;52.624;13.544;2023-03-31T00:21:12;5.70;;;1.93;;
18376;SDS011;9315;52.624;13.544;2023-03-31T00:23:59;4.50;;;1.50;;
18376;SDS011;9315;52.624;13.544;2023-03-31T00:26:33;5.33;;;1.73;;
18376;SDS011;9315;52.624;13.544;2023-03-31T00:29:02;8.23;;;1.60;;
18376;SDS011;9315;52.624;13.544;2023-03-31T00:31:32;4.93;;;1.80;;
18376;SDS011;9315;52.624;13.544;2023-03-31T00:34:04;7.50;;;1.63;;
18376;SDS011;9315;52.624;13.544;2023-03-31T00:36:32;5.47;;;1.50;;
18376;SDS011;9315;52.624;13.544;2023-03-31T00:39:03;10.03;;;1.53;;
18376;SDS011;9315;52.624;13.544;2023-03-31T00:41:35;5.57;;;1.90;;
18376;SDS011;9315;52.624;13.544;2023-03-31T00:46:51;4.03;;;1.40;;
18376;SDS011;9315;52.624;13.544;2023-03-31T00:49:34;6.47;;;1.93;;
18376;SDS011;9315;52.624;13.544;2023-03-31T00:52:13;7.80;;;1.60;;
18376;SDS011;9315;52.624;13.544;2023-03-31T00:54:50;6.53;;;1.50;;
18376;SDS011;9315;52.624;13.544;2023-03-31T00:57:28;8.50;;;1.53;;
18376;SDS011;9315;52.624;13.544;2023-03-31T01:00:03;6.30;;;1.50;;
18376;SDS011;9315;52.624;13.544;2023-03-31T01:02:52;6.23;;;1.60;;
18376;SDS011;9315;52.624;13.544;2023-03-31T01:05:25;5.93;;;1.60;;
18376;SDS011;9315;52.624;13.544;2023-03-31T01:08:09;6.57;;;1.33;;
18376;SDS011;9315;52.624;13.544;2023-03-31T01:10:40;10.53;;;1.37;;
18376;SDS011;9315;52.624;13.544;2023-03-31T01:13:16;6.00;;;1.40;;
18376;SDS011;9315;52.624;13.544;2023-03-31T01:15:45;8.57;;;1.90;;
18376;SDS011;9315;52.624;13.544;2023-03-31T01:18:13;6.03;;;1.27;;
18376;SDS011;9315;52.624;13.544;2023-03-31T01:43:57;4.63;;;1.10;;
18376;SDS011;9315;52.624;13.544;2023-03-31T01:47:01;12.10;;;1.60;;
18376;SDS011;9315;52.624;13.544;2023-03-31T01:50:25;4.97;;;1.60;;
18376;SDS011;9315;52.624;13.544;2023-03-31T01:53:32;8.10;;;1.47;;
18376;SDS011;9315;52.624;13.544;2023-03-31T01:56:07;5.97;;;1.20;;
18376;SDS011;9315;52.624;13.544;2023-03-31T02:01:50;3.53;;;1.27;;
18376;SDS011;9315;52.624;13.544;2023-03-31T02:04:52;6.03;;;1.40;;
18376;SDS011;9315;52.624;13.544;2023-03-31T02:07:27;6.70;;;1.50;;
18376;SDS011;9315;52.624;13.544;2023-03-31T02:10:03;8.47;;;1.53;;
18376;SDS011;9315;52.624;13.544;2023-03-31T02:12:34;8.50;;;2.00;;
18376;SDS011;9315;52.624;13.544;2023-03-31T02:15:04;9.33;;;1.80;;
18376;SDS011;9315;52.624;13.544;2023-03-31T02:17:37;7.33;;;1.60;;
18376;SDS011;9315;52.624;13.544;2023-03-31T02:20:11;6.50;;;1.10;;
18376;SDS011;9315;52.624;13.544;2023-03-31T02:22:44;6.90;;;1.20;;
18376;SDS011;9315;52.624;13.544;2023-03-31T02:25:20;3.77;;;1.10;;
18376;SDS011;9315;52.624;13.544;2023-03-31T02:27:55;5.33;;;1.10;;
18376;SDS011;9315;52.624;13.544;2023-03-31T02:30:45;5.43;;;1.63;;
18376;SDS011;9315;52.624;13.544;2023-03-31T02:33:35;4.47;;;1.17;;
18376;SDS011;9315;52.624;13.544;2023-03-31T02:36:02;6.20;;;1.33;;
18376;SDS011;9315;52.624;13.544;2023-03-31T02:38:32;6.93;;;1.30;;
18376;SDS011;9315;52.624;13.544;2023-03-31T02:41:11;4.37;;;1.03;;
18376;SDS011;9315;52.624;13.544;2023-03-31T02:43:38;8.47;;;1.33;;
18376;SDS011;9315;52.624;13.544;2023-03-31T02:46:05;3.53;;;0.97;;
18376;SDS011;9315;52.624;13.544;2023-03-31T02:48:34;8.47;;;1.50;;
18376;SDS011;9315;52.624;13.544;2023-03-31T02:51:15;4.87;;;1.20;;
18376;SDS011;9315;52.624;13.544;2023-03-31T02:57:44;6.80;;;0.90;;
18376;SDS011;9315;52.624;13.544;2023-03-31T03:09:56;7.70;;;1.10;;
18376;SDS011;9315;52.624;13.544;2023-03-31T03:15:32;6.73;;;1.27;;
18376;SDS011;9315;52.624;13.544;2023-03-31T03:18:31;5.23;;;1.20;;
18376;SDS011;9315;52.624;13.544;2023-03-31T03:21:01;4.97;;;1.07;;
18376;SDS011;9315;52.624;13.544;2023-03-31T03:23:28;6.93;;;1.13;;
18376;SDS011;9315;52.624;13.544;2023-03-31T03:25:56;5.27;;;1.13;;
18376;SDS011;9315;52.624;13.544;2023-03-31T03:28:23;4.87;;;0.97;;
18376;SDS011;9315;52.624;13.544;2023-03-31T03:30:50;6.77;;;1.10;;
18376;SDS011;9315;52.624;13.544;2023-03-31T03:33:18;5.40;;;0.90;;
18376;SDS011;9315;52.624;13.544;2023-03-31T03:35:49;2.80;;;1.17;;
18376;SDS011;9315;52.624;13.544;2023-03-31T03:38:17;8.10;;;1.30;;
18376;SDS011;9315;52.624;13.544;2023-03-31T03:40:44;7.23;;;1.33;;
18376;SDS011;9315;52.624;13.544;2023-03-31T03:43:15;3.90;;;1.07;;
18376;SDS011;9315;52.624;13.544;2023-03-31T03:45:46;7.97;;;1.33;;
18376;SDS011;9315;52.624;13.544;2023-03-31T03:48:15;5.27;;;1.13;;
18376;SDS011;9315;52.624;13.544;2023-03-31T03:50:46;6.30;;;1.10;;
18376;SDS011;9315;52.624;13.544;2023-03-31T03:53:13;6.80;;;1.20;;
18376;SDS011;9315;52.624;13.544;2023-03-31T03:55:41;11.53;;;2.33;;
18376;SDS011;9315;52.624;13.544;2023-03-31T03:58:09;6.47;;;1.33;;
18376;SDS011;9315;52.624;13.544;2023-03-31T04:00:36;10.23;;;1.70;;
18376;SDS011;9315;52.624;13.544;2023-03-31T04:03:04;6.63;;;1.37;;
18376;SDS011;9315;52.624;13.544;2023-03-31T04:05:31;11.07;;;1.87;;
18376;SDS011;9315;52.624;13.544;2023-03-31T04:07:58;5.60;;;1.40;;
18376;SDS011;9315;52.624;13.544;2023-03-31T04:10:25;6.17;;;1.43;;
18376;SDS011;9315;52.624;13.544;2023-03-31T04:12:52;4.57;;;1.10;;
18376;SDS011;9315;52.624;13.544;2023-03-31T04:15:19;6.83;;;1.30;;
18376;SDS011;9315;52.624;13.544;2023-03-31T04:17:46;5.40;;;1.27;;
18376;SDS011;9315;52.624;13.544;2023-03-31T04:20:16;6.87;;;1.20;;
18376;SDS011;9315;52.624;13.544;2023-03-31T04:22:43;6.33;;;1.30;;
18376;SDS011;9315;52.624;13.544;2023-03-31T04:25:12;7.93;;;1.20;;
18376;SDS011;9315;52.624;13.544;2023-03-31T04:27:46;6.10;;;1.67;;
18376;SDS011;9315;52.624;13.544;2023-03-31T04:30:21;5.70;;;1.67;;
18376;SDS011;9315;52.624;13.544;2023-03-31T04:32:57;11.77;;;1.57;;
18376;SDS011;9315;52.624;13.544;2023-03-31T04:35:28;7.07;;;1.60;;
18376;SDS011;9315;52.624;13.544;2023-03-31T04:38:16;3.70;;;1.10;;
18376;SDS011;9315;52.624;13.544;2023-03-31T04:40:47;4.47;;;1.30;;
18376;SDS011;9315;52.624;13.544;2023-03-31T04:43:19;6.33;;;1.40;;
18376;SDS011;9315;52.624;13.544;2023-03-31T04:45:47;6.20;;;1.23;;
18376;SDS011;9315;52.624;13.544;2023-03-31T04:48:14;6.47;;;1.10;;
18376;SDS011;9315;52.624;13.544;2023-03-31T04:50:42;9.87;;;1.40;;
18376;SDS011;9315;52.624;13.544;2023-03-31T04:53:11;7.60;;;0.90;;
18376;SDS011;9315;52.624;13.544;2023-03-31T04:55:38;7.47;;;2.07;;
18376;SDS011;9315;52.624;13.544;2023-03-31T04:58:06;5.30;;;1.00;;
18376;SDS011;9315;52.624;13.544;2023-03-31T05:00:33;6.10;;;1.37;;
18376;SDS011;9315;52.624;13.544;2023-03-31T05:03:00;8.10;;;1.13;;
18376;SDS011;9315;52.624;13.544;2023-03-31T05:05:28;6.17;;;1.07;;
18376;SDS011;9315;52.624;13.544;2023-03-31T05:07:56;8.50;;;1.20;;
18376;SDS011;9315;52.624;13.544;2023-03-31T05:10:23;5.33;;;1.30;;
18376;SDS011;9315;52.624;13.544;2023-03-31T05:12:50;3.13;;;1.30;;
18376;SDS011;9315;52.624;13.544;2023-03-31T05:15:17;6.70;;;0.97;;
18376;SDS011;9315;52.624;13.544;2023-03-31T05:17:45;5.03;;;1.33;;
18376;SDS011;9315;52.624;13.544;2023-03-31T05:20:12;3.50;;;1.13;;
18376;SDS011;9315;52.624;13.544;2023-03-31T05:22:40;7.57;;;1.70;;
18376;SDS011;9315;52.624;13.544;2023-03-31T05:25:09;6.47;;;1.27;;
18376;SDS011;9315;52.624;13.544;2023-03-31T05:27:42;6.90;;;2.00;;
18376;SDS011;9315;52.624;13.544;2023-03-31T05:30:16;7.03;;;1.53;;
18376;SDS011;9315;52.624;13.544;2023-03-31T05:32:43;10.23;;;1.30;;
18376;SDS011;9315;52.624;13.544;2023-03-31T05:35:10;10.30;;;1.53;;
18376;SDS011;9315;52.624;13.544;2023-03-31T05:37:37;5.10;;;1.20;;
18376;SDS011;9315;52.624;13.544;2023-03-31T05:40:05;7.87;;;1.40;;
18376;SDS011;9315;52.624;13.544;2023-03-31T05:42:34;7.43;;;1.50;;
18376;SDS011;9315;52.624;13.544;2023-03-31T05:45:02;6.37;;;1.33;;
18376;SDS011;9315;52.624;13.544;2023-03-31T05:47:34;4.33;;;1.20;;
18376;SDS011;9315;52.624;13.544;2023-03-31T05:50:02;5.53;;;1.27;;
18376;SDS011;9315;52.624;13.544;2023-03-31T05:52:33;5.07;;;1.40;;
18376;SDS011;9315;52.624;13.544;2023-03-31T05:55:01;7.53;;;1.30;;
18376;SDS011;9315;52.624;13.544;2023-03-31T05:57:29;7.37;;;1.37;;
18376;SDS011;9315;52.624;13.544;2023-03-31T05:59:57;4.03;;;1.37;;
18376;SDS011;9315;52.624;13.544;2023-03-31T06:02:24;5.73;;;1.53;;
18376;SDS011;9315;52.624;13.544;2023-03-31T06:04:52;5.17;;;1.23;;
18376;SDS011;9315;52.624;13.544;2023-03-31T06:07:19;5.80;;;1.40;;
18376;SDS011;9315;52.624;13.544;2023-03-31T06:09:49;6.70;;;1.17;;
18376;SDS011;9315;52.624;13.544;2023-03-31T06:12:17;5.47;;;1.30;;
18376;SDS011;9315;52.624;13.544;2023-03-31T06:14:44;6.90;;;1.33;;
18376;SDS011;9315;52.624;13.544;2023-03-31T06:17:11;3.30;;;1.40;;
18376;SDS011;9315;52.624;13.544;2023-03-31T06:19:38;6.27;;;1.63;;
18376;SDS011;9315;52.624;13.544;2023-03-31T06:22:05;5.70;;;1.53;;
18376;SDS011;9315;52.624;13.544;2023-03-31T06:24:33;10.70;;;1.70;;
18376;SDS011;9315;52.624;13.544;2023-03-31T06:27:02;6.37;;;1.47;;
18376;SDS011;9315;52.624;13.544;2023-03-31T06:29:32;5.07;;;1.20;;
18376;SDS011;9315;52.624;13.544;2023-03-31T06:31:59;4.53;;;0.90;;
18376;SDS011;9315;52.624;13.544;2023-03-31T06:34:26;8.10;;;1.40;;
18376;SDS011;9315;52.624;13.544;2023-03-31T06:36:53;6.20;;;1.17;;
18376;SDS011;9315;52.624;13.544;2023-03-31T06:39:21;7.30;;;1.30;;
18376;SDS011;9315;52.624;13.544;2023-03-31T06:41:49;9.13;;;1.50;;
18376;SDS011;9315;52.624;13.544;2023-03-31T06:44:16;6.23;;;1.37;;
18376;SDS011;9315;52.624;13.544;2023-03-31T06:46:44;6.77;;;1.60;;
18376;SDS011;9315;52.624;13.544;2023-03-31T06:49:11;8.60;;;1.30;;
18376;SDS011;9315;52.624;13.544;2023-03-31T06:51:41;8.10;;;1.20;;
18376;SDS011;9315;52.624;13.544;2023-03-31T06:54:08;8.63;;;1.80;;
18376;SDS011;9315;52.624;13.544;2023-03-31T06:56:36;6.90;;;1.40;;
18376;SDS011;9315;52.624;13.544;2023-03-31T06:59:03;8.60;;;1.50;;
18376;SDS011;9315;52.624;13.544;2023-03-31T07:01:30;8.20;;;1.60;;
18376;SDS011;9315;52.624;13.544;2023-03-31T07:04:02;10.37;;;1.70;;
18376;SDS011;9315;52.624;13.544;2023-03-31T07:06:30;7.13;;;1.50;;
18376;SDS011;9315;52.624;13.544;2023-03-31T07:08:57;11.43;;;1.87;;
18376;SDS011;9315;52.624;13.544;2023-03-31T07:11:24;6.37;;;1.70;;
18376;SDS011;9315;52.624;13.544;2023-03-31T07:13:51;6.77;;;1.63;;
18376;SDS011;9315;52.624;13.544;2023-03-31T07:16:18;7.57;;;1.43;;
18376;SDS011;9315;52.624;13.544;2023-03-31T07:18:46;8.97;;;1.67;;
18376;SDS011;9315;52.624;13.544;2023-03-31T07:21:13;8.20;;;1.67;;
18376;SDS011;9315;52.624;13.544;2023-03-31T07:23:40;12.47;;;1.70;;
18376;SDS011;9315;52.624;13.544;2023-03-31T07:26:07;7.77;;;1.40;;
18376;SDS011;9315;52.624;13.544;2023-03-31T07:28:34;10.27;;;1.77;;
18376;SDS011;9315;52.624;13.544;2023-03-31T07:31:02;8.43;;;1.67;;
18376;SDS011;9315;52.624;13.544;2023-03-31T07:33:39;9.53;;;1.50;;
18376;SDS011;9315;52.624;13.544;2023-03-31T07:36:07;13.17;;;1.90;;
18376;SDS011;9315;52.624;13.544;2023-03-31T07:38:39;6.90;;;1.50;;
18376;SDS011;9315;52.624;13.544;2023-03-31T07:41:10;10.23;;;1.80;;
18376;SDS011;9315;52.624;13.544;2023-03-31T07:43:45;8.13;;;1.80;;
18376;SDS011;9315;52.624;13.544;2023-03-31T07:46:20;6.67;;;1.60;;
18376;SDS011;9315;52.624;13.544;2023-03-31T07:48:52;8.33;;;1.57;;
18376;SDS011;9315;52.624;13.544;2023-03-31T07:51:22;7.33;;;1.57;;
18376;SDS011;9315;52.624;13.544;2023-03-31T07:53:52;10.17;;;2.13;;
18376;SDS011;9315;52.624;13.544;2023-03-31T07:56:20;8.60;;;1.57;;
18376;SDS011;9315;52.624;13.544;2023-03-31T07:58:50;9.27;;;1.33;;
18376;SDS011;9315;52.624;13.544;2023-03-31T08:01:22;10.37;;;1.40;;
18376;SDS011;9315;52.624;13.544;2023-03-31T08:03:52;13.20;;;1.80;;
18376;SDS011;9315;52.624;13.544;2023-03-31T08:06:21;10.83;;;1.50;;
18376;SDS011;9315;52.624;13.544;2023-03-31T08:08:51;7.43;;;1.70;;
18376;SDS011;9315;52.624;13.544;2023-03-31T08:11:19;8.30;;;1.67;;
18376;SDS011;9315;52.624;13.544;2023-03-31T08:13:55;14.57;;;1.70;;
18376;SDS011;9315;52.624;13.544;2023-03-31T08:16:22;14.27;;;1.77;;
18376;SDS011;9315;52.624;13.544;2023-03-31T08:18:50;14.57;;;2.10;;
18376;SDS011;9315;52.624;13.544;2023-03-31T08:21:17;5.33;;;1.47;;
18376;SDS011;9315;52.624;13.544;2023-03-31T08:23:51;11.73;;;1.80;;
18376;SDS011;9315;52.624;13.544;2023-03-31T08:26:23;9.87;;;1.70;;
18376;SDS011;9315;52.624;13.544;2023-03-31T08:28:51;12.80;;;2.03;;
18376;SDS011;9315;52.624;13.544;2023-03-31T08:31:19;9.00;;;1.60;;
18376;SDS011;9315;52.624;13.544;2023-03-31T08:33:49;17.07;;;2.10;;
18376;SDS011;9315;52.624;13.544;2023-03-31T08:36:16;9.43;;;1.73;;
18376;SDS011;9315;52.624;13.544;2023-03-31T08:38:43;6.93;;;1.57;;
18376;SDS011;9315;52.624;13.544;2023-03-31T08:44:28;12.10;;;2.20;;
18376;SDS011;9315;52.624;13.544;2023-03-31T08:47:12;5.10;;;1.70;;
18376;SDS011;9315;52.624;13.544;2023-03-31T08:49:51;13.53;;;1.70;;
18376;SDS011;9315;52.624;13.544;2023-03-31T08:52:27;8.50;;;1.70;;
18376;SDS011;9315;52.624;13.544;2023-03-31T08:55:12;6.80;;;1.50;;
18376;SDS011;9315;52.624;13.544;2023-03-31T08:57:59;8.90;;;1.63;;
18376;SDS011;9315;52.624;13.544;2023-03-31T09:00:49;6.90;;;1.40;;
18376;SDS011;9315;52.624;13.544;2023-03-31T09:13:42;12.87;;;2.10;;
18376;SDS011;9315;52.624;13.544;2023-03-31T09:22:48;12.63;;;1.97;;
18376;SDS011;9315;52.624;13.544;2023-03-31T09:25:33;12.60;;;1.57;;
18376;SDS011;9315;52.624;13.544;2023-03-31T09:28:05;6.17;;;1.47;;
18376;SDS011;9315;52.624;13.544;2023-03-31T09:30:49;11.17;;;1.97;;
18376;SDS011;9315;52.624;13.544;2023-03-31T09:33:18;7.73;;;1.47;;
18376;SDS011;9315;52.624;13.544;2023-03-31T09:36:01;12.00;;;1.40;;
18376;SDS011;9315;52.624;13.544;2023-03-31T09:38:44;5.80;;;1.20;;
18376;SDS011;9315;52.624;13.544;2023-03-31T09:41:13;7.27;;;1.43;;
18376;SDS011;9315;52.624;13.544;2023-03-31T09:43:42;7.78;;;1.60;;
18376;SDS011;9315;52.624;13.544;2023-03-31T09:46:15;7.97;;;1.53;;
18376;SDS011;9315;52.624;13.544;2023-03-31T09:49:11;8.82;;;1.40;;
18376;SDS011;9315;52.624;13.544;2023-03-31T09:51:44;4.25;;;1.15;;
18376;SDS011;9315;52.624;13.544;2023-03-31T09:54:22;9.95;;;1.60;;
18376;SDS011;9315;52.624;13.544;2023-03-31T09:57:00;10.05;;;1.60;;
18376;SDS011;9315;52.624;13.544;2023-03-31T09:59:32;9.85;;;1.30;;
18376;SDS011;9315;52.624;13.544;2023-03-31T10:02:13;7.50;;;1.33;;
18376;SDS011;9315;52.624;13.544;2023-03-31T10:05:06;6.90;;;1.38;;
18376;SDS011;9315;52.624;13.544;2023-03-31T10:08:13;4.85;;;1.38;;
18376;SDS011;9315;52.624;13.544;2023-03-31T10:13:44;12.57;;;1.50;;
18376;SDS011;9315;52.624;13.544;2023-03-31T10:16:54;6.05;;;1.38;;
18376;SDS011;9315;52.624;13.544;2023-03-31T10:19:27;6.47;;;1.20;;
18376;SDS011;9315;52.624;13.544;2023-03-31T10:22:15;9.73;;;1.73;;
18376;SDS011;9315;52.624;13.544;2023-03-31T10:25:15;4.18;;;1.17;;
18376;SDS011;9315;52.624;13.544;2023-03-31T10:27:51;5.97;;;1.00;;
18376;SDS011;9315;52.624;13.544;2023-03-31T10:30:23;7.00;;;1.10;;
18376;SDS011;9315;52.624;13.544;2023-03-31T10:32:56;6.27;;;1.20;;
18376;SDS011;9315;52.624;13.544;2023-03-31T10:35:26;7.27;;;1.20;;
18376;SDS011;9315;52.624;13.544;2023-03-31T10:38:01;7.70;;;1.40;;
18376;SDS011;9315;52.624;13.544;2023-03-31T10:40:48;5.00;;;0.88;;
18376;SDS011;9315;52.624;13.544;2023-03-31T10:43:23;6.33;;;1.40;;
18376;SDS011;9315;52.624;13.544;2023-03-31T10:46:12;6.93;;;1.30;;
18376;SDS011;9315;52.624;13.544;2023-03-31T10:48:40;5.57;;;1.30;;
18376;SDS011;9315;52.624;13.544;2023-03-31T10:54:01;4.17;;;1.00;;
18376;SDS011;9315;52.624;13.544;2023-03-31T11:19:51;5.50;;;1.57;;
18376;SDS011;9315;52.624;13.544;2023-03-31T11:23:05;5.17;;;1.20;;
18376;SDS011;9315;52.624;13.544;2023-03-31T11:41:19;4.68;;;0.93;;
18376;SDS011;9315;52.624;13.544;2023-03-31T11:44:18;2.25;;;0.80;;
18376;SDS011;9315;52.624;13.544;2023-03-31T11:46:55;2.63;;;0.70;;
18376;SDS011;9315;52.624;13.544;2023-03-31T11:49:27;5.47;;;1.02;;
18376;SDS011;9315;52.624;13.544;2023-03-31T11:52:13;2.77;;;0.80;;
18376;SDS011;9315;52.624;13.544;2023-03-31T11:57:48;4.90;;;1.13;;
18376;SDS011;9315;52.624;13.544;2023-03-31T12:00:49;2.85;;;1.00;;
18376;SDS011;9315;52.624;13.544;2023-03-31T12:03:55;7.43;;;1.83;;
18376;SDS011;9315;52.624;13.544;2023-03-31T12:06:29;7.88;;;1.33;;
18376;SDS011;9315;52.624;13.544;2023-03-31T12:09:22;2.58;;;0.70;;
18376;SDS011;9315;52.624;13.544;2023-03-31T12:12:14;5.97;;;0.75;;
18376;SDS011;9315;52.624;13.544;2023-03-31T12:18:12;7.50;;;1.10;;
18376;SDS011;9315;52.624;13.544;2023-03-31T12:20:52;5.32;;;0.75;;
18376;SDS011;9315;52.624;13.544;2023-03-31T12:23:28;3.92;;;0.85;;
18376;SDS011;9315;52.624;13.544;2023-03-31T12:26:33;3.25;;;1.33;;
18376;SDS011;9315;52.624;13.544;2023-03-31T12:29:30;3.85;;;0.77;;
18376;SDS011;9315;52.624;13.544;2023-03-31T12:32:12;7.82;;;1.25;;
18376;SDS011;9315;52.624;13.544;2023-03-31T12:35:05;5.03;;;1.05;;
18376;SDS011;9315;52.624;13.544;2023-03-31T12:59:36;7.63;;;2.30;;
18376;SDS011;9315;52.624;13.544;2023-03-31T13:04:43;12.13;;;3.50;;
18376;SDS011;9315;52.624;13.544;2023-03-31T13:09:58;11.53;;;3.73;;
18376;SDS011;9315;52.624;13.544;2023-03-31T13:12:40;10.30;;;3.70;;
18376;SDS011;9315;52.624;13.544;2023-03-31T13:15:18;7.87;;;3.70;;
18376;SDS011;9315;52.624;13.544;2023-03-31T13:17:53;10.93;;;3.73;;
18376;SDS011;9315;52.624;13.544;2023-03-31T13:20:37;1.80;;;0.50;;
18376;SDS011;9315;52.624;13.544;2023-03-31T13:30:48;2.20;;;0.30;;
18376;SDS011;9315;52.624;13.544;2023-03-31T13:33:32;1.57;;;0.30;;
18376;SDS011;9315;52.624;13.544;2023-03-31T14:07:19;9.63;;;3.70;;
18376;SDS011;9315;52.624;13.544;2023-03-31T14:10:03;6.67;;;3.13;;
18376;SDS011;9315;52.624;13.544;2023-03-31T14:15:03;5.67;;;1.90;;
18376;SDS011;9315;52.624;13.544;2023-03-31T14:17:34;8.30;;;2.40;;
18376;SDS011;9315;52.624;13.544;2023-03-31T14:26:06;9.47;;;3.07;;
18376;SDS011;9315;52.624;13.544;2023-03-31T14:29:03;8.30;;;3.63;;
18376;SDS011;9315;52.624;13.544;2023-03-31T14:32:38;5.87;;;1.63;;
18376;SDS011;9315;52.624;13.544;2023-03-31T14:38:08;3.53;;;1.87;;
18376;SDS011;9315;52.624;13.544;2023-03-31T14:41:00;2.60;;;1.60;;
18376;SDS011;9315;52.624;13.544;2023-03-31T14:43:32;3.93;;;1.50;;
18376;SDS011;9315;52.624;13.544;2023-03-31T14:46:06;3.67;;;1.33;;
18376;SDS011;9315;52.624;13.544;2023-03-31T14:48:44;2.50;;;0.80;;
18376;SDS011;9315;52.624;13.544;2023-03-31T14:51:16;3.13;;;1.20;;
18376;SDS011;9315;52.624;13.544;2023-03-31T14:53:58;3.80;;;1.13;;
18376;SDS011;9315;52.624;13.544;2023-03-31T14:56:31;4.20;;;1.40;;
18376;SDS011;9315;52.624;13.544;2023-03-31T14:59:04;3.13;;;0.97;;
18376;SDS011;9315;52.624;13.544;2023-03-31T15:01:34;3.10;;;2.00;;
18376;SDS011;9315;52.624;13.544;2023-03-31T15:04:12;9.37;;;8.47;;
18376;SDS011;9315;52.624;13.544;2023-03-31T15:06:48;9.00;;;5.47;;
18376;SDS011;9315;52.624;13.544;2023-03-31T15:09:21;3.17;;;1.90;;
18376;SDS011;9315;52.624;13.544;2023-03-31T15:12:06;2.93;;;1.97;;
18376;SDS011;9315;52.624;13.544;2023-03-31T15:14:50;3.70;;;1.10;;
18376;SDS011;9315;52.624;13.544;2023-03-31T15:17:27;3.17;;;1.33;;
18376;SDS011;9315;52.624;13.544;2023-03-31T15:20:19;1.93;;;0.83;;
18376;SDS011;9315;52.624;13.544;2023-03-31T15:23:00;3.93;;;1.00;;
18376;SDS011;9315;52.624;13.544;2023-03-31T15:25:46;4.30;;;0.90;;
18376;SDS011;9315;52.624;13.544;2023-03-31T15:28:24;2.63;;;0.70;;
18376;SDS011;9315;52.624;13.544;2023-03-31T15:30:59;2.73;;;0.70;;
18376;SDS011;9315;52.624;13.544;2023-03-31T15:33:35;5.60;;;1.03;;
18376;SDS011;9315;52.624;13.544;2023-03-31T15:36:07;3.73;;;1.10;;
18376;SDS011;9315;52.624;13.544;2023-03-31T15:38:39;3.67;;;0.80;;
18376;SDS011;9315;52.624;13.544;2023-03-31T15:41:10;4.97;;;1.10;;
18376;SDS011;9315;52.624;13.544;2023-03-31T15:43:46;4.67;;;1.03;;
18376;SDS011;9315;52.624;13.544;2023-03-31T15:49:54;3.03;;;0.77;;
18376;SDS011;9315;52.624;13.544;2023-03-31T15:52:47;4.00;;;0.90;;
18376;SDS011;9315;52.624;13.544;2023-03-31T15:55:41;3.93;;;1.00;;
18376;SDS011;9315;52.624;13.544;2023-03-31T15:58:14;3.00;;;0.80;;
18376;SDS011;9315;52.624;13.544;2023-03-31T16:00:45;2.17;;;0.90;;
18376;SDS011;9315;52.624;13.544;2023-03-31T16:03:34;3.13;;;0.90;;
18376;SDS011;9315;52.624;13.544;2023-03-31T16:06:08;2.67;;;0.80;;
18376;SDS011;9315;52.624;13.544;2023-03-31T16:08:56;3.83;;;1.50;;
18376;SDS011;9315;52.624;13.544;2023-03-31T16:11:57;2.73;;;1.10;;
18376;SDS011;9315;52.624;13.544;2023-03-31T16:14:48;1.93;;;1.47;;
18376;SDS011;9315;52.624;13.544;2023-03-31T16:17:41;5.27;;;1.87;;
18376;SDS011;9315;52.624;13.544;2023-03-31T16:20:23;3.03;;;1.70;;
18376;SDS011;9315;52.624;13.544;2023-03-31T16:23:02;2.30;;;0.90;;
18376;SDS011;9315;52.624;13.544;2023-03-31T16:25:51;2.10;;;0.97;;
18376;SDS011;9315;52.624;13.544;2023-03-31T16:28:20;1.53;;;0.80;;
18376;SDS011;9315;52.624;13.544;2023-03-31T16:30:55;2.37;;;0.90;;
18376;SDS011;9315;52.624;13.544;2023-03-31T16:33:27;1.03;;;0.70;;
18376;SDS011;9315;52.624;13.544;2023-03-31T16:36:17;2.30;;;0.70;;
18376;SDS011;9315;52.624;13.544;2023-03-31T16:38:44;1.77;;;0.50;;
18376;SDS011;9315;52.624;13.544;2023-03-31T16:41:12;4.60;;;1.37;;
18376;SDS011;9315;52.624;13.544;2023-03-31T16:43:43;3.60;;;1.30;;
18376;SDS011;9315;52.624;13.544;2023-03-31T16:46:11;2.80;;;1.00;;
18376;SDS011;9315;52.624;13.544;2023-03-31T16:48:38;2.87;;;0.90;;
18376;SDS011;9315;52.624;13.544;2023-03-31T16:51:05;3.40;;;1.50;;
18376;SDS011;9315;52.624;13.544;2023-03-31T16:53:33;2.07;;;1.43;;
18376;SDS011;9315;52.624;13.544;2023-03-31T16:56:03;2.20;;;1.10;;
18376;SDS011;9315;52.624;13.544;2023-03-31T16:58:35;2.50;;;1.30;;
18376;SDS011;9315;52.624;13.544;2023-03-31T17:01:04;2.63;;;1.43;;
18376;SDS011;9315;52.624;13.544;2023-03-31T17:03:33;3.27;;;1.40;;
18376;SDS011;9315;52.624;13.544;2023-03-31T17:06:04;2.90;;;1.40;;
18376;SDS011;9315;52.624;13.544;2023-03-31T17:08:38;4.30;;;1.43;;
18376;SDS011;9315;52.624;13.544;2023-03-31T17:11:10;6.50;;;1.70;;
18376;SDS011;9315;52.624;13.544;2023-03-31T17:13:40;6.00;;;1.90;;
18376;SDS011;9315;52.624;13.544;2023-03-31T17:16:09;5.03;;;2.13;;
18376;SDS011;9315;52.624;13.544;2023-03-31T17:18:41;5.33;;;2.50;;
18376;SDS011;9315;52.624;13.544;2023-03-31T17:21:10;5.10;;;2.40;;
18376;SDS011;9315;52.624;13.544;2023-03-31T17:23:40;6.07;;;2.73;;
18376;SDS011;9315;52.624;13.544;2023-03-31T17:26:08;4.37;;;3.20;;
18376;SDS011;9315;52.624;13.544;2023-03-31T17:28:38;8.70;;;4.00;;
18376;SDS011;9315;52.624;13.544;2023-03-31T17:31:11;4.53;;;2.97;;
18376;SDS011;9315;52.624;13.544;2023-03-31T17:33:45;6.70;;;3.20;;
18376;SDS011;9315;52.624;13.544;2023-03-31T17:36:13;7.00;;;3.00;;
18376;SDS011;9315;52.624;13.544;2023-03-31T17:38:41;5.83;;;3.50;;
18376;SDS011;9315;52.624;13.544;2023-03-31T17:41:10;8.10;;;3.57;;
18376;SDS011;9315;52.624;13.544;2023-03-31T17:43:38;5.60;;;3.43;;
18376;SDS011;9315;52.624;13.544;2023-03-31T17:46:10;11.77;;;3.60;;
18376;SDS011;9315;52.624;13.544;2023-03-31T17:48:39;5.97;;;3.73;;
18376;SDS011;9315;52.624;13.544;2023-03-31T17:51:09;5.77;;;4.13;;
18376;SDS011;9315;52.624;13.544;2023-03-31T17:53:44;5.97;;;4.30;;
18376;SDS011;9315;52.624;13.544;2023-03-31T17:56:13;5.03;;;3.97;;
18376;SDS011;9315;52.624;13.544;2023-03-31T17:58:42;7.83;;;3.70;;
18376;SDS011;9315;52.624;13.544;2023-03-31T18:01:11;6.53;;;3.77;;
18376;SDS011;9315;52.624;13.544;2023-03-31T18:03:39;7.47;;;4.10;;
18376;SDS011;9315;52.624;13.544;2023-03-31T18:06:10;7.43;;;4.37;;
18376;SDS011;9315;52.624;13.544;2023-03-31T18:08:39;7.00;;;4.30;;
18376;SDS011;9315;52.624;13.544;2023-03-31T18:11:08;8.87;;;4.33;;
18376;SDS011;9315;52.624;13.544;2023-03-31T18:13:36;8.90;;;4.77;;
18376;SDS011;9315;52.624;13.544;2023-03-31T18:16:05;10.40;;;4.73;;
18376;SDS011;9315;52.624;13.544;2023-03-31T18:18:35;9.80;;;4.37;;
18376;SDS011;9315;52.624;13.544;2023-03-31T18:21:04;8.77;;;4.80;;
18376;SDS011;9315;52.624;13.544;2023-03-31T18:23:36;10.30;;;4.80;;
18376;SDS011;9315;52.624;13.544;2023-03-31T18:26:06;6.73;;;4.63;;
18376;SDS011;9315;52.624;13.544;2023-03-31T18:28:37;13.20;;;5.00;;
18376;SDS011;9315;52.624;13.544;2023-03-31T18:31:06;8.10;;;4.10;;
18376;SDS011;9315;52.624;13.544;2023-03-31T18:33:35;9.77;;;4.80;;
18376;SDS011;9315;52.624;13.544;2023-03-31T18:36:02;9.23;;;4.70;;
18376;SDS011;9315;52.624;13.544;2023-03-31T18:38:31;9.27;;;4.90;;
18376;SDS011;9315;52.624;13.544;2023-03-31T18:41:02;9.53;;;5.10;;
18376;SDS011;9315;52.624;13.544;2023-03-31T18:43:30;8.43;;;4.83;;
18376;SDS011;9315;52.624;13.544;2023-03-31T18:45:58;9.63;;;5.07;;